Mönchsheide Airfield

DE-0260 · Rheinland Pfalz, Deutschland

METAR-Geschichte DE-0260 · Mönchsheide Airfield

Unten siehst du die METARs der letzten paar Tage. Wähle ein Jahr, um ältere METARs ab dem Jahr 2007 zu durchsuchen.

3. März 2024

Uhrzeit Code Wetter Temp. Sichtweite Wolkendecke Wind METAR/SPECI
00:50
V
11 °C 10 km+ - 110° 110° 7 kt METAR EDDK 022350Z AUTO 11007KT 080V140 CAVOK 11/05 Q1000 NOSIG
00:20
V
11 °C 10 km+ - 110° 110° 8 kt METAR EDDK 022320Z AUTO 11008KT 070V140 CAVOK 11/05 Q1000 NOSIG

2. März 2024

Uhrzeit Code Wetter Temp. Sichtweite Wolkendecke Wind METAR/SPECI
23:50
V
11 °C 10 km+ - 130° 130° 10 kt METAR EDDK 022250Z AUTO 13010KT CAVOK 11/05 Q1001 NOSIG
23:20
V
11 °C 10 km+ - 130° 130° 8 kt METAR EDDK 022220Z AUTO 13008KT 100V170 CAVOK 11/05 Q1000 NOSIG
22:50
V
11 °C 10 km+ - 110° 110° 9 kt METAR EDDK 022150Z AUTO 11009KT 080V150 CAVOK 11/05 Q1000 NOSIG
22:20
V
12 °C 10 km+ - 110° 110° 8 kt METAR EDDK 022120Z AUTO 11008KT 070V140 CAVOK 12/05 Q1000 NOSIG
21:50
V
12 °C 10 km+ - 110° 110° 7 kt METAR EDDK 022050Z AUTO 11007KT 070V130 CAVOK 12/04 Q1000 NOSIG
21:20
V
12 °C 10 km+ - 110° 110° 7 kt METAR EDDK 022020Z AUTO 11007KT 080V140 CAVOK 12/04 Q1000 NOSIG
20:50
V
12 °C 10 km+ - 120° 120° 7 kt METAR EDDK 021950Z AUTO 12007KT 090V150 CAVOK 12/04 Q1001 NOSIG
20:20
V
12 °C 10 km+ - 120° 120° 9 kt METAR EDDK 021920Z AUTO 12009KT 090V160 CAVOK 12/04 Q1001 NOSIG
19:50
V
13 °C 10 km+ - 130° 130° 8 kt METAR EDDK 021850Z AUTO 13008KT 100V160 CAVOK 13/04 Q1001 NOSIG
19:20
V
13 °C 10 km+ - 120° 120° 9 kt METAR EDDK 021820Z AUTO 12009KT 090V150 CAVOK 13/04 Q1001 NOSIG
18:50
V
13 °C 10 km+ - 120° 120° 10 kt METAR EDDK 021750Z AUTO 12010KT CAVOK 13/04 Q1001 NOSIG
18:20
V
13 °C 10 km+ - 130° 130° 9 kt METAR EDDK 021720Z AUTO 13009KT 090V150 CAVOK 13/03 Q1000 NOSIG
17:50
V
13 °C 10 km+ - 130° 130° 9 kt METAR EDDK 021650Z AUTO 13009KT 100V170 CAVOK 13/03 Q1000 NOSIG
17:20
V
13 °C 10 km+ - 140° 140° 13 kt METAR EDDK 021620Z AUTO 14013KT CAVOK 13/04 Q1000 BECMG 14008KT
16:50
V
14 °C 10 km+ - 140° 140° 13 kt METAR EDDK 021550Z AUTO 14013KT CAVOK 14/04 Q1000 NOSIG
16:20
V
14 °C 10 km+ - 140° 140° 12 kt METAR EDDK 021520Z AUTO 14012KT 110V170 CAVOK 14/04 Q1001 NOSIG
15:50
V
13 °C 10 km+ - 140° 140° 13 kt METAR EDDK 021450Z AUTO 14013KT CAVOK 13/04 Q1001 NOSIG
15:20
V
14 °C 10 km+ - 140° 140° 13 kt METAR EDDK 021420Z AUTO 14013KT 090V160 CAVOK 14/04 Q1001 NOSIG
14:50
V
13 °C 10 km+ - 140° 140° 13 kt METAR EDDK 021350Z AUTO 14013KT 080V160 9999 FEW042 13/04 Q1001 NOSIG
14:20
V
14 °C 10 km+ - 140° 140° 13 kt METAR EDDK 021320Z AUTO 14013KT 100V170 CAVOK 14/05 Q1002 NOSIG
13:50
V
14 °C 10 km+ - 150° 150° 15 kt METAR EDDK 021250Z AUTO 15015KT 9999 FEW041 14/05 Q1002 NOSIG
13:20
V
12 °C 10 km+ - 140° 140° 12 kt METAR EDDK 021220Z AUTO 14012KT 100V160 9999 FEW039 12/04 Q1002 NOSIG
12:50
V
13 °C 10 km+ 4.700 ft 150° 150° 14 kt METAR EDDK 021150Z AUTO 15014KT 9999 BKN047 13/04 Q1002 NOSIG
12:20
V
13 °C 10 km+ - 160° 160° 14 kt METAR EDDK 021120Z AUTO 16014KT CAVOK 13/04 Q1003 NOSIG
11:50
V
13 °C 10 km+ - 160° 160° 14 kt METAR EDDK 021050Z AUTO 16014KT CAVOK 13/04 Q1003 NOSIG
11:20
V
12 °C 10 km+ - 150° 150° 14 kt METAR EDDK 021020Z AUTO 15014KT CAVOK 12/04 Q1003 NOSIG
10:50
V
11 °C 10 km+ - 150° 150° 15 kt METAR EDDK 020950Z AUTO 15015KT CAVOK 11/04 Q1003 NOSIG
10:20
V
10 °C 10 km+ - 160° 160° 15 kt METAR EDDK 020920Z AUTO 16015KT CAVOK 10/04 Q1003 NOSIG
09:50
V
10 °C 10 km+ - 160° 160° 14 kt METAR EDDK 020850Z AUTO 16014KT CAVOK 10/04 Q1003 NOSIG
09:20
V
9 °C 10 km+ - 150° 150° 15 kt METAR EDDK 020820Z AUTO 15015KT CAVOK 09/03 Q1003 NOSIG
08:50
V
8 °C 10 km+ - 140° 140° 12 kt METAR EDDK 020750Z AUTO 14012KT CAVOK 08/03 Q1003 NOSIG
08:20
V
7 °C 10 km+ - 130° 130° 13 kt METAR EDDK 020720Z AUTO 13013KT CAVOK 07/03 Q1002 NOSIG
07:50
V
7 °C 10 km+ - 140° 140° 11 kt METAR EDDK 020650Z AUTO 14011KT CAVOK 07/03 Q1002 NOSIG
07:20
V
7 °C 10 km+ - 140° 140° 11 kt METAR EDDK 020620Z AUTO 14011KT CAVOK 07/03 Q1002 NOSIG
06:50
V
6 °C 10 km+ - 130° 130° 9 kt METAR EDDK 020550Z AUTO 13009KT 9999 FEW046 06/02 Q1002 NOSIG
06:20
V
5 °C 10 km+ 4.500 ft 140° 140° 9 kt METAR EDDK 020520Z AUTO 14009KT 9999 BKN045 05/02 Q1002 NOSIG
05:50
V
6 °C 10 km+ - 140° 140° 10 kt METAR EDDK 020450Z AUTO 14010KT 9999 SCT040 06/02 Q1002 NOSIG
05:20
V
7 °C 10 km+ - 140° 140° 11 kt METAR EDDK 020420Z AUTO 14011KT CAVOK 07/02 Q1001 NOSIG
04:50
V
7 °C 10 km+ - 150° 150° 12 kt METAR EDDK 020350Z AUTO 15012KT CAVOK 07/03 Q1001 NOSIG
04:20
V
7 °C 10 km+ - 140° 140° 12 kt METAR EDDK 020320Z AUTO 14012KT CAVOK 07/03 Q1001 NOSIG
03:50
V
7 °C 10 km+ - 140° 140° 11 kt METAR EDDK 020250Z AUTO 14011KT CAVOK 07/03 Q1001 NOSIG
03:20
V
7 °C 10 km+ - 140° 140° 12 kt METAR EDDK 020220Z AUTO 14012KT CAVOK 07/03 Q1001 NOSIG
02:50
V
8 °C 10 km+ - 140° 140° 14 kt METAR EDDK 020150Z AUTO 14014KT CAVOK 08/03 Q1001 NOSIG
02:20
V
7 °C 10 km+ - 140° 140° 15 kt METAR EDDK 020120Z AUTO 14015KT CAVOK 07/03 Q1002 NOSIG
01:50
V
8 °C 10 km+ - 140° 140° 14 kt METAR EDDK 020050Z AUTO 14014KT CAVOK 08/03 Q1002 NOSIG
01:20
V
7 °C 10 km+ - 140° 140° 13 kt METAR EDDK 020020Z AUTO 14013KT CAVOK 07/03 Q1002 NOSIG
00:50
V
6 °C 10 km+ - 150° 150° 12 kt METAR EDDK 012350Z AUTO 15012KT CAVOK 06/03 Q1002 NOSIG
00:20
V
7 °C 10 km+ - 130° 130° 13 kt METAR EDDK 012320Z AUTO 13013KT CAVOK 07/03 Q1002 NOSIG

1. März 2024

Uhrzeit Code Wetter Temp. Sichtweite Wolkendecke Wind METAR/SPECI
23:50
V
7 °C 10 km+ - 140° 140° 11 kt METAR EDDK 012250Z AUTO 14011KT CAVOK 07/03 Q1002 NOSIG
23:20
V
7 °C 10 km+ - 140° 140° 13 kt METAR EDDK 012220Z AUTO 14013KT CAVOK 07/02 Q1003 NOSIG
22:50
V
7 °C 10 km+ - 140° 140° 11 kt METAR EDDK 012150Z AUTO 14011KT CAVOK 07/02 Q1003 NOSIG
22:20
V
8 °C 10 km+ - 140° 140° 13 kt METAR EDDK 012120Z AUTO 14013KT CAVOK 08/02 Q1003 NOSIG
21:50
V
8 °C 10 km+ - 130° 130° 12 kt METAR EDDK 012050Z AUTO 13012KT CAVOK 08/03 Q1002 NOSIG
21:20
V
8 °C 10 km+ - 130° 130° 11 kt METAR EDDK 012020Z AUTO 13011KT CAVOK 08/02 Q1003 NOSIG
20:50
V
8 °C 10 km+ - 120° 120° 9 kt METAR EDDK 011950Z AUTO 12009KT 100V160 CAVOK 08/02 Q1003 NOSIG
20:20
V
9 °C 10 km+ - 110° 110° 8 kt METAR EDDK 011920Z AUTO 11008KT CAVOK 09/02 Q1003 NOSIG
19:50
V
9 °C 10 km+ - 120° 120° 7 kt METAR EDDK 011850Z AUTO 12007KT 080V150 CAVOK 09/02 Q1003 NOSIG
19:20
V
9 °C 10 km+ - 130° 130° 8 kt METAR EDDK 011820Z AUTO 13008KT CAVOK 09/02 Q1003 NOSIG
18:50
V
9 °C 10 km+ - 140° 140° 11 kt METAR EDDK 011750Z AUTO 14011KT CAVOK 09/02 Q1003 NOSIG
18:20
V
9 °C 10 km+ - 140° 140° 12 kt METAR EDDK 011720Z AUTO 14012KT CAVOK 09/02 Q1003 NOSIG
17:50
V
10 °C 10 km+ - 160° 160° 9 kt METAR EDDK 011650Z AUTO 16009KT CAVOK 10/02 Q1003 NOSIG
17:20
V
10 °C 10 km+ - 170° 170° 12 kt METAR EDDK 011620Z AUTO 17012KT CAVOK 10/01 Q1003 NOSIG
16:50
V
11 °C 10 km+ - 170° 170° 11 kt METAR EDDK 011550Z AUTO 17011KT CAVOK 11/02 Q1004 NOSIG
16:20
V
11 °C 10 km+ - 170° 170° 13 kt METAR EDDK 011520Z AUTO 17013KT CAVOK 11/02 Q1003
15:50
V
11 °C 10 km+ - 160° 160° 12 kt METAR EDDK 011450Z AUTO 16012KT CAVOK 11/02 Q1004 NOSIG
15:20
V
11 °C 10 km+ - 160° 160° 14 kt METAR EDDK 011420Z AUTO 16014KT CAVOK 11/02 Q1004 NOSIG
14:50
V
10 °C 10 km+ - 170° 170° 15 kt METAR EDDK 011350Z AUTO 17015KT 130V190 CAVOK 10/02 Q1004 NOSIG
14:20
V
11 °C 10 km+ - 180° 180° 14 kt METAR EDDK 011320Z AUTO 18014KT 140V200 CAVOK 11/03 Q1004 NOSIG
13:50
V
10 °C 10 km+ - 190° 190° 14 kt METAR EDDK 011250Z AUTO 19014KT 160V220 9999 FEW031 10/03 Q1004 NOSIG
13:20
V
10 °C 10 km+ - 190° 190° 13 kt METAR EDDK 011220Z AUTO 19013KT CAVOK 10/04 Q1004 NOSIG
12:50
V
10 °C 10 km+ 3.400 ft 200° 200° 13 kt METAR EDDK 011150Z AUTO 20013KT 170V240 9999 FEW019 SCT028 BKN034 10/04 Q1005 NOSIG
12:20
V
9 °C 10 km+ 3.400 ft 190° 190° 9 kt METAR EDDK 011120Z AUTO 19009KT 9999 FEW017 SCT022 BKN034 09/05 Q1005 NOSIG
11:50
V
10 °C 10 km+ - 210° 210° 6 kt METAR EDDK 011050Z AUTO 21006KT 180V250 9999 FEW014 SCT032 10/06 Q1005 NOSIG
11:20
V
9 °C 10 km+ - Var Var 2 kt METAR EDDK 011020Z AUTO VRB02KT 9999 FEW026 09/06 Q1005 NOSIG
10:50
M
7 °C 10 km+ 1.600 ft 270° 270° 3 kt METAR EDDK 010950Z AUTO 27003KT 9999 -DZ BKN016 OVC025 07/06 Q1006 NOSIG
10:20
M
7 °C 10 km+ 1.600 ft 280° 280° 4 kt METAR EDDK 010920Z AUTO 28004KT 9999 -DZ BKN016 07/05 Q1005 NOSIG
09:50
M
7 °C 10 km+ 1.500 ft 310° 310° 5 kt METAR EDDK 010850Z AUTO 31005KT 9999 OVC015 07/06 Q1005 NOSIG
09:20
M
7 °C 10 km+ 1.600 ft 250° 250° 5 kt METAR EDDK 010820Z AUTO 25005KT 9999 -DZ OVC016 07/05 Q1005 NOSIG
08:50
M
7 °C 10 km+ 1.700 ft 220° 220° 4 kt METAR EDDK 010750Z AUTO 22004KT 9999 -DZ BKN017 07/05 Q1005 NOSIG
08:20
M
7 °C 10 km+ 1.800 ft 250° 250° 5 kt METAR EDDK 010720Z AUTO 25005KT 210V270 9999 -DZ OVC018 07/05 Q1005 NOSIG
07:50
M
7 °C 10 km+ 2.100 ft 150° 150° 8 kt METAR EDDK 010650Z AUTO 15008KT 9999 BKN021 07/04 Q1004 NOSIG
07:20
M
7 °C 10 km+ 2.300 ft 140° 140° 11 kt METAR EDDK 010620Z AUTO 14011KT 9999 BKN023 07/04 Q1004 NOSIG
06:50
M
7 °C 10 km+ 2.400 ft 140° 140° 12 kt METAR EDDK 010550Z AUTO 14012KT 9999 BKN024 07/03 Q1004 NOSIG
06:20
V
6 °C 10 km+ - 130° 130° 11 kt METAR EDDK 010520Z AUTO 13011KT 9999 FEW023 06/03 Q1003 NOSIG
05:50
V
6 °C 10 km+ - 130° 130° 8 kt METAR EDDK 010450Z AUTO 13008KT 9999 FEW023 SCT046 06/03 Q1004 NOSIG
05:20
V
7 °C 10 km+ 3.500 ft 120° 120° 7 kt METAR EDDK 010420Z AUTO 12007KT 9999 BKN035 07/03 Q1003 NOSIG
04:50
V
7 °C 10 km+ 3.500 ft 130° 130° 7 kt METAR EDDK 010350Z AUTO 13007KT 9999 BKN035 07/03 Q1003 NOSIG
04:20
M
7 °C 10 km+ 2.000 ft 110° 110° 6 kt METAR EDDK 010320Z AUTO 11006KT 080V140 9999 BKN020 07/03 Q1003 NOSIG
03:50
M
6 °C 10 km+ 2.000 ft 120° 120° 5 kt METAR EDDK 010250Z AUTO 12005KT 9999 BKN020 06/03 Q1003 NOSIG
03:20
V
5 °C 10 km+ - 130° 130° 5 kt METAR EDDK 010220Z AUTO 13005KT 9999 SCT021 05/02 Q1004 NOSIG
02:50
V
6 °C 10 km+ - 110° 110° 4 kt METAR EDDK 010150Z AUTO 11004KT 060V170 9999 FEW030 06/02 Q1004 NOSIG
02:20
V
6 °C 10 km+ - 110° 110° 5 kt METAR EDDK 010120Z AUTO 11005KT 070V160 CAVOK 06/02 Q1004 NOSIG
01:50
V
6 °C 10 km+ - 100° 100° 6 kt METAR EDDK 010050Z AUTO 10006KT CAVOK 06/02 Q1004 NOSIG
01:20
V
6 °C 10 km+ - 120° 120° 5 kt METAR EDDK 010020Z AUTO 12005KT CAVOK 06/02 Q1005 NOSIG
00:50
V
6 °C 10 km+ - 090° 090° 4 kt METAR EDDK 292350Z AUTO 09004KT CAVOK 06/02 Q1005 NOSIG
00:20
V
6 °C 10 km+ 4.900 ft 110° 110° 5 kt METAR EDDK 292320Z AUTO 11005KT 080V150 9999 BKN049 06/02 Q1005 NOSIG

29. Februar 2024

Uhrzeit Code Wetter Temp. Sichtweite Wolkendecke Wind METAR/SPECI
23:50
V
6 °C 10 km+ - 120° 120° 7 kt METAR EDDK 292250Z AUTO 12007KT 9999 FEW049 06/02 Q1005 NOSIG
23:20
V
7 °C 10 km+ - 120° 120° 7 kt METAR EDDK 292220Z AUTO 12007KT CAVOK 07/02 Q1005 NOSIG
22:50
V
7 °C 10 km+ - 120° 120° 8 kt METAR EDDK 292150Z AUTO 12008KT CAVOK 07/02 Q1006 NOSIG
22:20
V
7 °C 10 km+ - 130° 130° 7 kt METAR EDDK 292120Z AUTO 13007KT CAVOK 07/02 Q1006 NOSIG
21:50
V
7 °C 10 km+ - 120° 120° 6 kt METAR EDDK 292050Z AUTO 12006KT CAVOK 07/02 Q1006 NOSIG
21:20
V
7 °C 10 km+ - 120° 120° 7 kt METAR EDDK 292020Z AUTO 12007KT 090V150 CAVOK 07/01 Q1006 NOSIG
20:50
V
8 °C 10 km+ - 130° 130° 9 kt METAR EDDK 291950Z AUTO 13009KT CAVOK 08/01 Q1006 NOSIG
20:20
V
8 °C 10 km+ - 130° 130° 11 kt METAR EDDK 291920Z AUTO 13011KT CAVOK 08/00 Q1007 NOSIG
19:50
V
9 °C 10 km+ - 130° 130° 11 kt METAR EDDK 291850Z AUTO 13011KT CAVOK 09/M00 Q1007 NOSIG
19:20
V
9 °C 10 km+ - 130° 130° 9 kt METAR EDDK 291820Z AUTO 13009KT CAVOK 09/00 Q1007 NOSIG
18:50
V
10 °C 10 km+ - 130° 130° 10 kt METAR EDDK 291750Z AUTO 13010KT CAVOK 10/01 Q1007 NOSIG
18:20
V
10 °C 10 km+ - 130° 130° 8 kt METAR EDDK 291720Z AUTO 13008KT CAVOK 10/01 Q1007 NOSIG
17:50
V
10 °C 10 km+ - 150° 150° 7 kt METAR EDDK 291650Z AUTO 15007KT CAVOK 10/02 Q1007 NOSIG
17:20
V
11 °C 10 km+ - 150° 150° 8 kt METAR EDDK 291620Z AUTO 15008KT CAVOK 11/02 Q1008 NOSIG
16:50
V
12 °C 10 km+ - 150° 150° 10 kt METAR EDDK 291550Z AUTO 15010KT CAVOK 12/01 Q1008 NOSIG
16:20
V
12 °C 10 km+ - 150° 150° 11 kt METAR EDDK 291520Z AUTO 15011KT CAVOK 12/01 Q1008 NOSIG
15:50
V
12 °C 10 km+ - 150° 150° 9 kt METAR EDDK 291450Z AUTO 15009KT CAVOK 12/02 Q1009 NOSIG
15:20
V
12 °C 10 km+ - 160° 160° 12 kt METAR EDDK 291420Z AUTO 16012KT CAVOK 12/02 Q1009 NOSIG
14:50
V
12 °C 10 km+ - 160° 160° 12 kt METAR EDDK 291350Z AUTO 16012KT CAVOK 12/01 Q1010 NOSIG
14:20
V
13 °C 10 km+ - 170° 170° 11 kt METAR EDDK 291320Z AUTO 17011KT 130V190 CAVOK 13/01 Q1010 NOSIG
13:50
V
12 °C 10 km+ - 150° 150° 10 kt METAR EDDK 291250Z AUTO 15010KT CAVOK 12/01 Q1011 NOSIG
13:20
V
11 °C 10 km+ - 150° 150° 11 kt METAR EDDK 291220Z AUTO 15011KT CAVOK 11/01 Q1011 NOSIG
12:50
V
11 °C 10 km+ - 160° 160° 10 kt METAR EDDK 291150Z AUTO 16010KT CAVOK 11/01 Q1012 NOSIG
12:20
V
10 °C 10 km+ - 140° 140° 12 kt METAR EDDK 291120Z AUTO 14012KT CAVOK 10/01 Q1012 NOSIG
11:50
V
10 °C 10 km+ - 150° 150° 11 kt METAR EDDK 291050Z AUTO 15011KT CAVOK 10/00 Q1013 NOSIG
11:20
V
10 °C 10 km+ - 150° 150° 8 kt METAR EDDK 291020Z AUTO 15008KT 120V180 CAVOK 10/01 Q1013 NOSIG
10:50
V
8 °C 10 km+ - 150° 150° 9 kt METAR EDDK 290950Z AUTO 15009KT CAVOK 08/00 Q1013 NOSIG
10:20
V
8 °C 10 km+ - 150° 150° 10 kt METAR EDDK 290920Z AUTO 15010KT CAVOK 08/01 Q1014 NOSIG
09:50
V
7 °C 10 km+ - 140° 140° 9 kt METAR EDDK 290850Z AUTO 14009KT CAVOK 07/01 Q1014 NOSIG
09:20
V
6 °C 10 km+ - 140° 140° 8 kt METAR EDDK 290820Z AUTO 14008KT CAVOK 06/01 Q1014 NOSIG
08:50
V
5 °C 10 km+ - 130° 130° 8 kt METAR EDDK 290750Z AUTO 13008KT CAVOK 05/M00 Q1015 NOSIG
08:20
V
4 °C 10 km+ - 130° 130° 6 kt METAR EDDK 290720Z AUTO 13006KT CAVOK 04/M01 Q1015 NOSIG
07:50
V
4 °C 10 km+ - 120° 120° 6 kt METAR EDDK 290650Z AUTO 12006KT 090V160 CAVOK 04/M01 Q1015 NOSIG
07:20
V
3 °C 10 km+ - 130° 130° 8 kt METAR EDDK 290620Z AUTO 13008KT CAVOK 03/M01 Q1015 NOSIG
06:50
V
3 °C 10 km+ - 120° 120° 7 kt METAR EDDK 290550Z AUTO 12007KT CAVOK 03/M01 Q1015 NOSIG